X  Lukk Metar værinformasjon om luftfart     EDDK Cologne Bonn Airport
Temperatur
17°C Temperatur
12°C Duggpunkt
73% Luftfuktighet



Vind
3 M/S
6 MPT
10 KM/T
5 KNP



130°
Nåværende forhold

Delvis overskyet Delvis overskyet
Trykk 1017.95 (hPa) - 30.06 (inHg)
Sikt 6 (mil) - 9.7 (km)
Flyplass
Flyplass-kode EDDK

Plassering: Cologne Bonn Airport
Avstand: 56 (km)

Metar:
EDDK 281350Z AUTO 13005KT 090V160 9999 FEW028 SCT048 17/12 Q1018 RESHRA NOSIG

Tid: 2024-05-28 15:50 CEST